Lady Duvera — PB2875 — position and weather

sailwx.info

Track history (hours):
 
Tides and Currents Weather Stations Pressure Air Temp Water Temp Dewpoint Dewpoint Depression Visibility Wind Speed Wind Dir Waves Ship Positions

Lady Duvera

Last reported at 2014-Jul-28 03:28 UTC. Time now 2014-Jul-28 04:19 UTC.
Position N 43°32' E 007°02'.

Length 44 m.

MMSI: 244650177.

Date/timePositionNaut miles runAvg speedWind from/ knotsBaromVisibWave heightAir tempDewpointWater temp
2014-Jul-28 03:28N 43°32' E 007°02'0 0.0
2014-Jul-28 02:32N 43°32' E 007°02'0 0.0
2014-Jul-28 01:22N 43°32' E 007°02'0 0.0
2014-Jul-28 00:28N 43°32' E 007°02'0 0.0
2014-Jul-27 23:10N 43°32' E 007°02'0 0.0
2014-Jul-27 22:25N 43°32' E 007°02'0 0.0
2014-Jul-27 21:32N 43°32' E 007°02'0 0.0
2014-Jul-27 20:22N 43°32' E 007°02'0 0.0
2014-Jul-27 19:28N 43°32' E 007°02'0 0.1
2014-Jul-27 16:33N 43°32' E 007°01'1 0.2
2014-Jul-27 10:32N 43°31' E 007°02'4 3.6
2014-Jul-27 09:26N 43°33' E 007°06'0 0.0
2014-Jul-27 08:26N 43°33' E 007°07'0 0.0
2014-Jul-27 07:32N 43°33' E 007°07'0 0.0
2014-Jul-27 06:32N 43°33' E 007°06'0 0.0
2014-Jul-27 05:26N 43°33' E 007°06'0 0.0
2014-Jul-27 04:32N 43°33' E 007°06'0 0.0
2014-Jul-27 03:32N 43°33' E 007°06'0 0.0
2014-Jul-27 02:32N 43°33' E 007°07'0 0.0
2014-Jul-27 01:26N 43°33' E 007°06'0 0.0
2014-Jul-27 00:26N 43°33' E 007°06'0 0.0
2014-Jul-26 23:32N 43°33' E 007°06'0 0.0
2014-Jul-26 22:32N 43°33' E 007°06'0 0.0
2014-Jul-26 21:26N 43°33' E 007°06'0 0.0
2014-Jul-26 20:32N 43°33' E 007°06'0 0.0
2014-Jul-26 19:32N 43°33' E 007°06'0 0.0
2014-Jul-26 18:32N 43°33' E 007°06'0 0.0
2014-Jul-26 17:32N 43°33' E 007°06'0 0.0
2014-Jul-26 16:26N 43°33' E 007°06'0 0.0
2014-Jul-26 15:32N 43°33' E 007°06'0 0.0
2014-Jul-26 14:32N 43°33' E 007°06'4 3.8
2014-Jul-26 13:33N 43°34' E 007°11'1010.1
2014-Jul-26 12:33N 43°42' E 007°21'1 0.6
2014-Jul-26 11:23N 43°42' E 007°20'0 0.0
2014-Jul-26 10:11N 43°42' E 007°20'0 0.0
2014-Jul-26 08:29N 43°42' E 007°20'0 0.0
2014-Jul-26 07:29N 43°42' E 007°20'0 0.0
2014-Jul-26 06:17N 43°42' E 007°20'0 0.0
2014-Jul-26 04:17N 43°42' E 007°20'0 0.0
2014-Jul-26 03:23N 43°42' E 007°20'0 0.0
2014-Jul-26 02:29N 43°42' E 007°20'0 0.0
2014-Jul-26 01:23N 43°42' E 007°20'0 0.0
2014-Jul-26 00:05N 43°42' E 007°20'0 0.0
2014-Jul-25 21:29N 43°42' E 007°20'0 0.0
2014-Jul-25 20:23N 43°42' E 007°20'0 0.0
2014-Jul-25 16:11N 43°42' E 007°20'0 0.1
2014-Jul-25 13:33N 43°42' E 007°20'5 0.7
2014-Jul-25 06:10N 43°45' E 007°27'0 0.0
2014-Jul-25 01:04N 43°45' E 007°27'0 0.0
2014-Jul-25 00:34N 43°45' E 007°27'0 0.0
2014-Jul-24 19:22N 43°45' E 007°27'0 0.0
2014-Jul-24 16:03N 43°45' E 007°27'4 2.9
2014-Jul-24 14:33N 43°42' E 007°22'1 0.8
2014-Jul-24 13:11N 43°42' E 007°20'0 0.0
2014-Jul-24 12:23N 43°42' E 007°20'0 0.0
2014-Jul-24 11:23N 43°42' E 007°20'0 0.0
2014-Jul-24 10:29N 43°42' E 007°20'0 0.0
2014-Jul-24 09:29N 43°42' E 007°20'0 0.0
2014-Jul-24 08:23N 43°42' E 007°20'0 0.0
2014-Jul-24 07:29N 43°42' E 007°20'0 0.0
2014-Jul-24 06:17N 43°42' E 007°20'0 0.0
2014-Jul-24 05:29N 43°42' E 007°20'0 0.0
2014-Jul-24 04:29N 43°42' E 007°20'0 0.0
2014-Jul-24 03:29N 43°42' E 007°20'0 0.0
2014-Jul-24 02:29N 43°42' E 007°20'0 0.0
2014-Jul-24 01:11N 43°42' E 007°20'0 0.0
2014-Jul-24 00:29N 43°42' E 007°20'0 0.0
2014-Jul-23 23:29N 43°42' E 007°20'0 0.0
2014-Jul-23 22:29N 43°42' E 007°20'0 0.0
2014-Jul-23 20:29N 43°42' E 007°20'0 0.0
2014-Jul-23 19:23N 43°42' E 007°20'0 0.0
2014-Jul-23 18:29N 43°42' E 007°20'0 0.0
2014-Jul-23 17:29N 43°42' E 007°20'0 0.0
2014-Jul-23 16:20N 43°42' E 007°20'0 0.0
2014-Jul-23 13:17N 43°42' E 007°20'0 0.0
2014-Jul-23 12:11N 43°42' E 007°20'2 2.9
2014-Jul-23 11:33N 43°40' E 007°20'10 9.9
2014-Jul-23 10:33N 43°34' E 007°10'4 3.6
2014-Jul-23 09:30N 43°34' E 007°05'0 0.0
2014-Jul-23 08:30N 43°34' E 007°05'0 0.0
2014-Jul-23 07:30N 43°34' E 007°05'0 0.0
2014-Jul-23 06:30N 43°34' E 007°05'0 0.0
2014-Jul-23 05:30N 43°34' E 007°05'0 0.0
2014-Jul-23 04:24N 43°34' E 007°05'0 0.0
2014-Jul-23 03:24N 43°34' E 007°05'0 0.0
2014-Jul-23 02:30N 43°34' E 007°05'0 0.0
2014-Jul-23 01:30N 43°34' E 007°05'0 0.0
2014-Jul-23 00:30N 43°34' E 007°05'0 0.0
2014-Jul-22 23:24N 43°34' E 007°05'0 0.0
2014-Jul-22 22:30N 43°34' E 007°05'0 0.0
2014-Jul-22 21:24N 43°34' E 007°05'0 0.0
2014-Jul-22 20:30N 43°34' E 007°05'0 0.0
2014-Jul-22 19:29N 43°34' E 007°05'0 0.0
2014-Jul-22 18:30N 43°34' E 007°05'0 0.0
2014-Jul-22 17:30N 43°34' E 007°05'0 0.0
2014-Jul-22 16:30N 43°34' E 007°05'0 0.0
2014-Jul-22 15:30N 43°34' E 007°05'0 0.0
2014-Jul-22 14:24N 43°34' E 007°05'0 0.0
2014-Jul-22 13:30N 43°34' E 007°05'0 0.0
2014-Jul-22 12:30N 43°34' E 007°05'0 0.0
2014-Jul-22 11:29N 43°34' E 007°05'0 0.0
2014-Jul-22 10:30N 43°34' E 007°05'0 0.0
2014-Jul-22 09:29N 43°34' E 007°05'0 0.0
2014-Jul-22 08:29N 43°34' E 007°05'0 0.0
2014-Jul-22 07:30N 43°34' E 007°05'0 0.0
2014-Jul-22 06:30N 43°34' E 007°05'0 0.0
2014-Jul-22 05:30N 43°34' E 007°05'0 0.0
2014-Jul-22 04:30N 43°34' E 007°05'0 0.0
2014-Jul-22 03:30N 43°34' E 007°05'0 0.0
2014-Jul-22 02:23N 43°34' E 007°05'0 0.0
2014-Jul-22 01:29N 43°34' E 007°05'0 0.0
2014-Jul-22 00:29N 43°34' E 007°05'0 0.0
2014-Jul-21 23:29N 43°34' E 007°05'0 0.0
2014-Jul-21 22:29N 43°34' E 007°05'0 0.0
2014-Jul-21 21:29N 43°34' E 007°05'0 0.0
2014-Jul-21 20:24N 43°34' E 007°05'0 0.0
2014-Jul-21 20:17N 43°34' E 007°05'0 0.0
2014-Jul-21 19:29N 43°34' E 007°05'0 0.0
2014-Jul-21 18:23N 43°34' E 007°05'0 0.0
2014-Jul-21 17:29N 43°34' E 007°05'0 0.0
2014-Jul-21 16:29N 43°34' E 007°05'0 0.0
2014-Jul-21 15:29N 43°34' E 007°05'0 0.0
2014-Jul-21 14:29N 43°34' E 007°05'0 0.0
2014-Jul-21 13:29N 43°34' E 007°05'0 0.0
2014-Jul-21 12:30N 43°34' E 007°05'0 0.0
2014-Jul-21 11:23N 43°34' E 007°05'0 0.0
2014-Jul-21 10:23N 43°34' E 007°05'0 0.0
2014-Jul-21 09:29N 43°34' E 007°05'0 0.0
2014-Jul-21 08:29N 43°34' E 007°05'0 0.0
2014-Jul-21 07:23N 43°34' E 007°05'0 0.0
2014-Jul-21 06:29N 43°34' E 007°05'0 0.0
2014-Jul-21 05:29N 43°34' E 007°05'0 0.0
2014-Jul-21 04:17N 43°34' E 007°05'0 0.0
2014-Jul-21 03:23N 43°34' E 007°05'0 0.0
2014-Jul-21 02:29N 43°34' E 007°05'0 0.0
2014-Jul-21 01:29N 43°34' E 007°05'0 0.0
2014-Jul-21 00:29N 43°34' E 007°05'0 0.0
2014-Jul-20 23:29N 43°34' E 007°05'0 0.0
2014-Jul-20 22:29N 43°34' E 007°05'0 0.0
2014-Jul-20 21:29N 43°34' E 007°05'0 0.0
2014-Jul-20 20:29N 43°34' E 007°05'0 0.0
2014-Jul-20 19:23N 43°34' E 007°05'0 0.0
2014-Jul-20 18:29N 43°34' E 007°05'0 0.0
2014-Jul-20 17:29N 43°34' E 007°05'0 0.0
2014-Jul-20 16:05N 43°34' E 007°05'0 0.0
2014-Jul-20 15:29N 43°34' E 007°05'0 0.0
2014-Jul-20 14:29N 43°34' E 007°05'0 0.0
2014-Jul-20 13:29N 43°34' E 007°05'0 0.0
2014-Jul-20 12:29N 43°34' E 007°05'0 0.0
2014-Jul-20 11:29N 43°34' E 007°05'0 0.0
2014-Jul-20 02:29N 43°34' E 007°05'0 0.0
2014-Jul-20 01:17N 43°34' E 007°05'0 0.0
2014-Jul-20 00:29N 43°34' E 007°05'0 0.0
2014-Jul-19 23:29N 43°34' E 007°05'0 0.0
2014-Jul-19 22:29N 43°34' E 007°05'0 0.0
2014-Jul-19 21:29N 43°34' E 007°05'0 0.0
2014-Jul-19 20:29N 43°34' E 007°05'0 0.0
2014-Jul-19 19:29N 43°34' E 007°05'0 0.0
2014-Jul-19 18:29N 43°34' E 007°05'0 0.0
2014-Jul-19 17:33N 43°34' E 007°05'1 1.2
2014-Jul-19 16:24N 43°33' E 007°06'7 8.0
2014-Jul-19 15:33N 43°28' E 007°00'1110.6
2014-Jul-19 14:33N 43°22' E 006°48'10 9.8
2014-Jul-19 13:33N 43°16' E 006°37'0 0.0
2014-Jul-19 12:28N 43°16' E 006°37'0 0.0
2014-Jul-19 11:28N 43°16' E 006°37'0 0.0
2014-Jul-19 10:31N 43°16' E 006°37'0 0.0
2014-Jul-19 09:31N 43°16' E 006°37'0 0.0
2014-Jul-19 08:31N 43°16' E 006°37'0 0.0
2014-Jul-19 07:28N 43°16' E 006°37'0 0.0
2014-Jul-19 06:31N 43°16' E 006°37'0 0.0
2014-Jul-19 05:31N 43°16' E 006°37'0 0.0
2014-Jul-19 04:31N 43°16' E 006°37'0 0.0
2014-Jul-19 03:31N 43°16' E 006°37'0 0.0
2014-Jul-19 02:31N 43°16' E 006°37'0 0.0
2014-Jul-19 01:31N 43°16' E 006°37'0 0.0
2014-Jul-19 00:31N 43°16' E 006°37'0 0.0
2014-Jul-18 23:25N 43°16' E 006°37'0 0.0
2014-Jul-18 22:28N 43°16' E 006°37'0 0.0
2014-Jul-18 21:31N 43°16' E 006°37'0 0.0
2014-Jul-18 20:22N 43°16' E 006°37'0 0.0
2014-Jul-18 19:28N 43°16' E 006°37'0 0.0
2014-Jul-18 18:28N 43°16' E 006°37'0 0.0
2014-Jul-18 17:28N 43°16' E 006°37'0 0.0
2014-Jul-18 16:28N 43°16' E 006°37'0 0.3
2014-Jul-18 15:34N 43°16' E 006°38'3 3.2
2014-Jul-18 14:30N 43°14' E 006°40'0 0.0
2014-Jul-18 13:33N 43°14' E 006°40'0 0.0
2014-Jul-18 12:27N 43°14' E 006°40'0 0.0
2014-Jul-18 11:33N 43°14' E 006°40'0 0.0
2014-Jul-18 10:24N 43°14' E 006°40'0 0.0
2014-Jul-18 09:21N 43°14' E 006°40'3 4.3
2014-Jul-18 08:33N 43°17' E 006°42'4 3.3
2014-Jul-18 07:22N 43°16' E 006°37'0 0.0
2014-Jul-18 06:28N 43°16' E 006°37'0 0.0
2014-Jul-18 05:25N 43°16' E 006°37'0 0.0
2014-Jul-18 04:28N 43°16' E 006°37'  
Track history (hours):
 
Tides and Currents Weather Stations Pressure Air Temp Water Temp Dewpoint Dewpoint Depression Visibility Wind Speed Wind Dir Waves Ship Positions

Lady Duvera

Last reported at 2014-Jul-28 03:28 UTC. Time now 2014-Jul-28 04:19 UTC.
Position N 43°32' E 007°02'.

Length 44 m.

MMSI: 244650177.

Date/timePositionNaut miles runAvg speedWind from/ knotsBaromVisibWave heightAir tempDewpointWater temp
2014-Jul-28 03:28N 43°32' E 007°02'0 0.0
2014-Jul-28 02:32N 43°32' E 007°02'0 0.0
2014-Jul-28 01:22N 43°32' E 007°02'0 0.0
2014-Jul-28 00:28N 43°32' E 007°02'0 0.0
2014-Jul-27 23:10N 43°32' E 007°02'0 0.0
2014-Jul-27 22:25N 43°32' E 007°02'0 0.0
2014-Jul-27 21:32N 43°32' E 007°02'0 0.0
2014-Jul-27 20:22N 43°32' E 007°02'0 0.0
2014-Jul-27 19:28N 43°32' E 007°02'0 0.1
2014-Jul-27 16:33N 43°32' E 007°01'1 0.2
2014-Jul-27 10:32N 43°31' E 007°02'4 3.6
2014-Jul-27 09:26N 43°33' E 007°06'0 0.0
2014-Jul-27 08:26N 43°33' E 007°07'0 0.0
2014-Jul-27 07:32N 43°33' E 007°07'0 0.0
2014-Jul-27 06:32N 43°33' E 007°06'0 0.0
2014-Jul-27 05:26N 43°33' E 007°06'0 0.0
2014-Jul-27 04:32N 43°33' E 007°06'0 0.0
2014-Jul-27 03:32N 43°33' E 007°06'0 0.0
2014-Jul-27 02:32N 43°33' E 007°07'0 0.0
2014-Jul-27 01:26N 43°33' E 007°06'0 0.0
2014-Jul-27 00:26N 43°33' E 007°06'0 0.0
2014-Jul-26 23:32N 43°33' E 007°06'0 0.0
2014-Jul-26 22:32N 43°33' E 007°06'0 0.0
2014-Jul-26 21:26N 43°33' E 007°06'0 0.0
2014-Jul-26 20:32N 43°33' E 007°06'0 0.0
2014-Jul-26 19:32N 43°33' E 007°06'0 0.0
2014-Jul-26 18:32N 43°33' E 007°06'0 0.0
2014-Jul-26 17:32N 43°33' E 007°06'0 0.0
2014-Jul-26 16:26N 43°33' E 007°06'0 0.0
2014-Jul-26 15:32N 43°33' E 007°06'0 0.0
2014-Jul-26 14:32N 43°33' E 007°06'4 3.8
2014-Jul-26 13:33N 43°34' E 007°11'1010.1
2014-Jul-26 12:33N 43°42' E 007°21'1 0.6
2014-Jul-26 11:23N 43°42' E 007°20'0 0.0
2014-Jul-26 10:11N 43°42' E 007°20'0 0.0
2014-Jul-26 08:29N 43°42' E 007°20'0 0.0
2014-Jul-26 07:29N 43°42' E 007°20'0 0.0
2014-Jul-26 06:17N 43°42' E 007°20'0 0.0
2014-Jul-26 04:17N 43°42' E 007°20'0 0.0
2014-Jul-26 03:23N 43°42' E 007°20'0 0.0
2014-Jul-26 02:29N 43°42' E 007°20'0 0.0
2014-Jul-26 01:23N 43°42' E 007°20'0 0.0
2014-Jul-26 00:05N 43°42' E 007°20'0 0.0
2014-Jul-25 21:29N 43°42' E 007°20'0 0.0
2014-Jul-25 20:23N 43°42' E 007°20'0 0.0
2014-Jul-25 16:11N 43°42' E 007°20'0 0.1
2014-Jul-25 13:33N 43°42' E 007°20'5 0.7
2014-Jul-25 06:10N 43°45' E 007°27'0 0.0
2014-Jul-25 01:04N 43°45' E 007°27'0 0.0
2014-Jul-25 00:34N 43°45' E 007°27'0 0.0
2014-Jul-24 19:22N 43°45' E 007°27'0 0.0
2014-Jul-24 16:03N 43°45' E 007°27'4 2.9
2014-Jul-24 14:33N 43°42' E 007°22'1 0.8
2014-Jul-24 13:11N 43°42' E 007°20'0 0.0
2014-Jul-24 12:23N 43°42' E 007°20'0 0.0
2014-Jul-24 11:23N 43°42' E 007°20'0 0.0
2014-Jul-24 10:29N 43°42' E 007°20'0 0.0
2014-Jul-24 09:29N 43°42' E 007°20'0 0.0
2014-Jul-24 08:23N 43°42' E 007°20'0 0.0
2014-Jul-24 07:29N 43°42' E 007°20'0 0.0
2014-Jul-24 06:17N 43°42' E 007°20'0 0.0
2014-Jul-24 05:29N 43°42' E 007°20'0 0.0
2014-Jul-24 04:29N 43°42' E 007°20'0 0.0
2014-Jul-24 03:29N 43°42' E 007°20'0 0.0
2014-Jul-24 02:29N 43°42' E 007°20'0 0.0
2014-Jul-24 01:11N 43°42' E 007°20'0 0.0
2014-Jul-24 00:29N 43°42' E 007°20'0 0.0
2014-Jul-23 23:29N 43°42' E 007°20'0 0.0
2014-Jul-23 22:29N 43°42' E 007°20'0 0.0
2014-Jul-23 20:29N 43°42' E 007°20'0 0.0
2014-Jul-23 19:23N 43°42' E 007°20'0 0.0
2014-Jul-23 18:29N 43°42' E 007°20'0 0.0
2014-Jul-23 17:29N 43°42' E 007°20'0 0.0
2014-Jul-23 16:20N 43°42' E 007°20'0 0.0
2014-Jul-23 13:17N 43°42' E 007°20'0 0.0
2014-Jul-23 12:11N 43°42' E 007°20'2 2.9
2014-Jul-23 11:33N 43°40' E 007°20'10 9.9
2014-Jul-23 10:33N 43°34' E 007°10'4 3.6
2014-Jul-23 09:30N 43°34' E 007°05'0 0.0
2014-Jul-23 08:30N 43°34' E 007°05'0 0.0
2014-Jul-23 07:30N 43°34' E 007°05'0 0.0
2014-Jul-23 06:30N 43°34' E 007°05'0 0.0
2014-Jul-23 05:30N 43°34' E 007°05'0 0.0
2014-Jul-23 04:24N 43°34' E 007°05'0 0.0
2014-Jul-23 03:24N 43°34' E 007°05'0 0.0
2014-Jul-23 02:30N 43°34' E 007°05'0 0.0
2014-Jul-23 01:30N 43°34' E 007°05'0 0.0
2014-Jul-23 00:30N 43°34' E 007°05'0 0.0
2014-Jul-22 23:24N 43°34' E 007°05'0 0.0
2014-Jul-22 22:30N 43°34' E 007°05'0 0.0
2014-Jul-22 21:24N 43°34' E 007°05'0 0.0
2014-Jul-22 20:30N 43°34' E 007°05'0 0.0
2014-Jul-22 19:29N 43°34' E 007°05'0 0.0
2014-Jul-22 18:30N 43°34' E 007°05'0 0.0
2014-Jul-22 17:30N 43°34' E 007°05'0 0.0
2014-Jul-22 16:30N 43°34' E 007°05'0 0.0
2014-Jul-22 15:30N 43°34' E 007°05'0 0.0
2014-Jul-22 14:24N 43°34' E 007°05'0 0.0
2014-Jul-22 13:30N 43°34' E 007°05'0 0.0
2014-Jul-22 12:30N 43°34' E 007°05'0 0.0
2014-Jul-22 11:29N 43°34' E 007°05'0 0.0
2014-Jul-22 10:30N 43°34' E 007°05'0 0.0
2014-Jul-22 09:29N 43°34' E 007°05'0 0.0
2014-Jul-22 08:29N 43°34' E 007°05'0 0.0
2014-Jul-22 07:30N 43°34' E 007°05'0 0.0
2014-Jul-22 06:30N 43°34' E 007°05'0 0.0
2014-Jul-22 05:30N 43°34' E 007°05'0 0.0
2014-Jul-22 04:30N 43°34' E 007°05'0 0.0
2014-Jul-22 03:30N 43°34' E 007°05'0 0.0
2014-Jul-22 02:23N 43°34' E 007°05'0 0.0
2014-Jul-22 01:29N 43°34' E 007°05'0 0.0
2014-Jul-22 00:29N 43°34' E 007°05'0 0.0
2014-Jul-21 23:29N 43°34' E 007°05'0 0.0
2014-Jul-21 22:29N 43°34' E 007°05'0 0.0
2014-Jul-21 21:29N 43°34' E 007°05'0 0.0
2014-Jul-21 20:24N 43°34' E 007°05'0 0.0
2014-Jul-21 20:17N 43°34' E 007°05'0 0.0
2014-Jul-21 19:29N 43°34' E 007°05'0 0.0
2014-Jul-21 18:23N 43°34' E 007°05'0 0.0
2014-Jul-21 17:29N 43°34' E 007°05'0 0.0
2014-Jul-21 16:29N 43°34' E 007°05'0 0.0
2014-Jul-21 15:29N 43°34' E 007°05'0 0.0
2014-Jul-21 14:29N 43°34' E 007°05'0 0.0
2014-Jul-21 13:29N 43°34' E 007°05'0 0.0
2014-Jul-21 12:30N 43°34' E 007°05'0 0.0
2014-Jul-21 11:23N 43°34' E 007°05'0 0.0
2014-Jul-21 10:23N 43°34' E 007°05'0 0.0
2014-Jul-21 09:29N 43°34' E 007°05'0 0.0
2014-Jul-21 08:29N 43°34' E 007°05'0 0.0
2014-Jul-21 07:23N 43°34' E 007°05'0 0.0
2014-Jul-21 06:29N 43°34' E 007°05'0 0.0
2014-Jul-21 05:29N 43°34' E 007°05'0 0.0
2014-Jul-21 04:17N 43°34' E 007°05'0 0.0
2014-Jul-21 03:23N 43°34' E 007°05'0 0.0
2014-Jul-21 02:29N 43°34' E 007°05'0 0.0
2014-Jul-21 01:29N 43°34' E 007°05'0 0.0
2014-Jul-21 00:29N 43°34' E 007°05'0 0.0
2014-Jul-20 23:29N 43°34' E 007°05'0 0.0
2014-Jul-20 22:29N 43°34' E 007°05'0 0.0
2014-Jul-20 21:29N 43°34' E 007°05'0 0.0
2014-Jul-20 20:29N 43°34' E 007°05'0 0.0
2014-Jul-20 19:23N 43°34' E 007°05'0 0.0
2014-Jul-20 18:29N 43°34' E 007°05'0 0.0
2014-Jul-20 17:29N 43°34' E 007°05'0 0.0
2014-Jul-20 16:05N 43°34' E 007°05'0 0.0
2014-Jul-20 15:29N 43°34' E 007°05'0 0.0
2014-Jul-20 14:29N 43°34' E 007°05'0 0.0
2014-Jul-20 13:29N 43°34' E 007°05'0 0.0
2014-Jul-20 12:29N 43°34' E 007°05'0 0.0
2014-Jul-20 11:29N 43°34' E 007°05'0 0.0
2014-Jul-20 02:29N 43°34' E 007°05'0 0.0
2014-Jul-20 01:17N 43°34' E 007°05'0 0.0
2014-Jul-20 00:29N 43°34' E 007°05'0 0.0
2014-Jul-19 23:29N 43°34' E 007°05'0 0.0
2014-Jul-19 22:29N 43°34' E 007°05'0 0.0
2014-Jul-19 21:29N 43°34' E 007°05'0 0.0
2014-Jul-19 20:29N 43°34' E 007°05'0 0.0
2014-Jul-19 19:29N 43°34' E 007°05'0 0.0
2014-Jul-19 18:29N 43°34' E 007°05'0 0.0
2014-Jul-19 17:33N 43°34' E 007°05'1 1.2
2014-Jul-19 16:24N 43°33' E 007°06'7 8.0
2014-Jul-19 15:33N 43°28' E 007°00'1110.6
2014-Jul-19 14:33N 43°22' E 006°48'10 9.8
2014-Jul-19 13:33N 43°16' E 006°37'0 0.0
2014-Jul-19 12:28N 43°16' E 006°37'0 0.0
2014-Jul-19 11:28N 43°16' E 006°37'0 0.0
2014-Jul-19 10:31N 43°16' E 006°37'0 0.0
2014-Jul-19 09:31N 43°16' E 006°37'0 0.0
2014-Jul-19 08:31N 43°16' E 006°37'0 0.0
2014-Jul-19 07:28N 43°16' E 006°37'0 0.0
2014-Jul-19 06:31N 43°16' E 006°37'0 0.0
2014-Jul-19 05:31N 43°16' E 006°37'0 0.0
2014-Jul-19 04:31N 43°16' E 006°37'0 0.0
2014-Jul-19 03:31N 43°16' E 006°37'0 0.0
2014-Jul-19 02:31N 43°16' E 006°37'0 0.0
2014-Jul-19 01:31N 43°16' E 006°37'0 0.0
2014-Jul-19 00:31N 43°16' E 006°37'0 0.0
2014-Jul-18 23:25N 43°16' E 006°37'0 0.0
2014-Jul-18 22:28N 43°16' E 006°37'0 0.0
2014-Jul-18 21:31N 43°16' E 006°37'0 0.0
2014-Jul-18 20:22N 43°16' E 006°37'0 0.0
2014-Jul-18 19:28N 43°16' E 006°37'0 0.0
2014-Jul-18 18:28N 43°16' E 006°37'0 0.0
2014-Jul-18 17:28N 43°16' E 006°37'0 0.0
2014-Jul-18 16:28N 43°16' E 006°37'0 0.3
2014-Jul-18 15:34N 43°16' E 006°38'3 3.2
2014-Jul-18 14:30N 43°14' E 006°40'0 0.0
2014-Jul-18 13:33N 43°14' E 006°40'0 0.0
2014-Jul-18 12:27N 43°14' E 006°40'0 0.0
2014-Jul-18 11:33N 43°14' E 006°40'0 0.0
2014-Jul-18 10:24N 43°14' E 006°40'0 0.0
2014-Jul-18 09:21N 43°14' E 006°40'3 4.3
2014-Jul-18 08:33N 43°17' E 006°42'4 3.3
2014-Jul-18 07:22N 43°16' E 006°37'0 0.0
2014-Jul-18 06:28N 43°16' E 006°37'0 0.0
2014-Jul-18 05:25N 43°16' E 006°37'0 0.0
2014-Jul-18 04:28N 43°16' E 006°37'  

Dump ship's entire track history